首页
METAR-TAF:

METAR-TAF

机场 :

富山機場

富山, 日本

纬度: 36-39N, 经度: 137-11E, 海拔: 24米

当前天气观测

该预报发布于40分钟前的04:00 UTC
风速6节,风向西转西北,在西转西南北转西北之间变化
温度 7°C
湿度 70%
气压 1022 hPa
能见度10公里或以上
少量云层高于1000英尺
散云层高于3000英尺
多云层高于7000英尺

METAR: RJNT 210400Z 30006KT 250V330 9999 FEW010 SCT030 BKN070 07/02 Q1022

时间: 13:40 (04:40 UTC)

预报

该预报发布于5小时和33分钟前的23:07 UTC
预报有效从21日的 00点(UTC)到 22日的 06点(UTC)
风速4节,风向南转西南
能见度10公里或以上
少量云层高于1000英尺
多云层高于3000英尺
成为
从 21日的 00点(UTC)到 21日的 02点(UTC)
风速5节,风向北转西北
成为
从 21日的 09点(UTC)到 21日的 11点(UTC)
风速4节,风向
成为
从 22日的 00点(UTC)到 22日的 03点(UTC)
风速6节,风向

TAF: RJNT 202307Z 2100/2206 20004KT 9999 FEW010 BKN030 BECMG 2100/2102 33005KT BECMG 2109/2111 19004KT BECMG 2200/2203 36006KT

超过4000个机场的气象观测和天气预报(METAR&TAF报告)。

可查询的气象台以黄色和红色小点在地图上表示。

将鼠标移到小点上方,可查看气象台名称。

然后点击查看天气观测和预报。

如需切换地图:点击带黑十字的绿色按钮放大地图;点击带横线的绿色按钮缩小地图;或者点击绿色箭头查看邻近地区的地图。


METAR-TAF: